sensor_id;sensor_type;location;lat;lon;timestamp;temperature;humidity
65036;DHT22;51603;49.300;8.880;2022-08-23T00:01:37;18.90;66.20
65036;DHT22;51603;49.300;8.880;2022-08-23T00:04:11;18.80;66.30
65036;DHT22;51603;49.300;8.880;2022-08-23T00:06:38;18.80;66.70
65036;DHT22;51603;49.300;8.880;2022-08-23T00:09:05;18.80;67.00
65036;DHT22;51603;49.300;8.880;2022-08-23T00:11:36;18.80;67.20
65036;DHT22;51603;49.300;8.880;2022-08-23T00:14:09;18.80;67.30
65036;DHT22;51603;49.300;8.880;2022-08-23T00:16:35;18.80;67.60
65036;DHT22;51603;49.300;8.880;2022-08-23T00:19:05;18.70;68.00
65036;DHT22;51603;49.300;8.880;2022-08-23T00:21:32;18.60;68.60
65036;DHT22;51603;49.300;8.880;2022-08-23T00:23:58;18.50;68.70
65036;DHT22;51603;49.300;8.880;2022-08-23T00:26:24;18.50;69.30
65036;DHT22;51603;49.300;8.880;2022-08-23T00:28:50;18.50;69.30
65036;DHT22;51603;49.300;8.880;2022-08-23T00:31:17;18.50;69.60
65036;DHT22;51603;49.300;8.880;2022-08-23T00:33:42;18.50;69.70
65036;DHT22;51603;49.300;8.880;2022-08-23T00:36:08;18.50;69.90
65036;DHT22;51603;49.300;8.880;2022-08-23T00:38:33;18.50;70.20
65036;DHT22;51603;49.300;8.880;2022-08-23T00:40:59;18.40;70.30
65036;DHT22;51603;49.300;8.880;2022-08-23T00:43:32;18.40;71.00
65036;DHT22;51603;49.300;8.880;2022-08-23T00:46:55;18.30;71.00
65036;DHT22;51603;49.300;8.880;2022-08-23T00:49:40;18.30;71.70
65036;DHT22;51603;49.300;8.880;2022-08-23T00:52:11;18.20;72.20
65036;DHT22;51603;49.300;8.880;2022-08-23T00:54:39;18.20;72.60
65036;DHT22;51603;49.300;8.880;2022-08-23T00:57:10;18.20;72.90
65036;DHT22;51603;49.300;8.880;2022-08-23T00:59:38;18.10;73.00
65036;DHT22;51603;49.300;8.880;2022-08-23T01:02:04;18.10;73.80
65036;DHT22;51603;49.300;8.880;2022-08-23T01:04:33;18.00;73.80
65036;DHT22;51603;49.300;8.880;2022-08-23T01:07:06;17.90;74.40
65036;DHT22;51603;49.300;8.880;2022-08-23T01:09:35;17.80;74.50
65036;DHT22;51603;49.300;8.880;2022-08-23T01:12:09;17.80;75.40
65036;DHT22;51603;49.300;8.880;2022-08-23T01:15:04;17.70;75.90
65036;DHT22;51603;49.300;8.880;2022-08-23T01:17:56;17.70;76.30
65036;DHT22;51603;49.300;8.880;2022-08-23T01:20:25;17.70;77.00
65036;DHT22;51603;49.300;8.880;2022-08-23T01:23:01;17.60;77.50
65036;DHT22;51603;49.300;8.880;2022-08-23T01:25:30;17.50;77.90
65036;DHT22;51603;49.300;8.880;2022-08-23T01:27:57;17.50;78.70
65036;DHT22;51603;49.300;8.880;2022-08-23T01:30:25;17.50;78.70
65036;DHT22;51603;49.300;8.880;2022-08-23T01:32:54;17.50;79.20
65036;DHT22;51603;49.300;8.880;2022-08-23T01:35:44;17.40;79.30
65036;DHT22;51603;49.300;8.880;2022-08-23T01:38:09;17.40;80.20
65036;DHT22;51603;49.300;8.880;2022-08-23T01:40:35;17.40;80.60
65036;DHT22;51603;49.300;8.880;2022-08-23T01:43:03;17.40;80.90
65036;DHT22;51603;49.300;8.880;2022-08-23T01:45:29;17.40;80.90
65036;DHT22;51603;49.300;8.880;2022-08-23T01:47:55;17.40;81.40
65036;DHT22;51603;49.300;8.880;2022-08-23T01:50:23;17.40;81.60
65036;DHT22;51603;49.300;8.880;2022-08-23T01:52:48;17.40;81.90
65036;DHT22;51603;49.300;8.880;2022-08-23T01:55:15;17.40;82.40
65036;DHT22;51603;49.300;8.880;2022-08-23T01:57:41;17.40;82.60
65036;DHT22;51603;49.300;8.880;2022-08-23T02:00:08;17.30;82.90
65036;DHT22;51603;49.300;8.880;2022-08-23T02:02:34;17.30;83.40
65036;DHT22;51603;49.300;8.880;2022-08-23T02:05:00;17.20;83.90
65036;DHT22;51603;49.300;8.880;2022-08-23T02:07:27;17.20;84.30
65036;DHT22;51603;49.300;8.880;2022-08-23T02:09:52;17.10;84.50
65036;DHT22;51603;49.300;8.880;2022-08-23T02:12:18;17.00;85.20
65036;DHT22;51603;49.300;8.880;2022-08-23T02:14:43;17.00;85.70
65036;DHT22;51603;49.300;8.880;2022-08-23T02:17:09;17.00;86.10
65036;DHT22;51603;49.300;8.880;2022-08-23T02:19:36;17.10;86.70
65036;DHT22;51603;49.300;8.880;2022-08-23T02:22:02;17.10;86.50
65036;DHT22;51603;49.300;8.880;2022-08-23T02:24:28;17.10;86.80
65036;DHT22;51603;49.300;8.880;2022-08-23T02:26:58;17.10;87.10
65036;DHT22;51603;49.300;8.880;2022-08-23T02:29:25;17.00;87.50
65036;DHT22;51603;49.300;8.880;2022-08-23T02:31:54;17.00;87.30
65036;DHT22;51603;49.300;8.880;2022-08-23T02:34:20;17.00;87.90
65036;DHT22;51603;49.300;8.880;2022-08-23T02:36:46;17.00;88.50
65036;DHT22;51603;49.300;8.880;2022-08-23T02:39:17;17.00;89.10
65036;DHT22;51603;49.300;8.880;2022-08-23T02:41:43;17.00;89.30
65036;DHT22;51603;49.300;8.880;2022-08-23T02:44:09;16.90;89.90
65036;DHT22;51603;49.300;8.880;2022-08-23T02:46:36;16.90;90.10
65036;DHT22;51603;49.300;8.880;2022-08-23T02:49:02;16.80;90.20
65036;DHT22;51603;49.300;8.880;2022-08-23T02:51:28;16.70;90.40
65036;DHT22;51603;49.300;8.880;2022-08-23T02:53:53;16.70;90.70
65036;DHT22;51603;49.300;8.880;2022-08-23T02:56:19;16.70;90.80
65036;DHT22;51603;49.300;8.880;2022-08-23T02:58:45;16.70;91.10
65036;DHT22;51603;49.300;8.880;2022-08-23T03:01:31;16.70;91.30
65036;DHT22;51603;49.300;8.880;2022-08-23T03:03:58;16.70;91.50
65036;DHT22;51603;49.300;8.880;2022-08-23T03:06:25;16.60;91.60
65036;DHT22;51603;49.300;8.880;2022-08-23T03:08:52;16.60;91.80
65036;DHT22;51603;49.300;8.880;2022-08-23T03:11:20;16.60;92.00
65036;DHT22;51603;49.300;8.880;2022-08-23T03:13:47;16.50;92.20
65036;DHT22;51603;49.300;8.880;2022-08-23T03:16:13;16.60;92.30
65036;DHT22;51603;49.300;8.880;2022-08-23T03:18:39;16.60;92.40
65036;DHT22;51603;49.300;8.880;2022-08-23T03:21:06;16.50;92.80
65036;DHT22;51603;49.300;8.880;2022-08-23T03:23:32;16.50;92.60
65036;DHT22;51603;49.300;8.880;2022-08-23T03:26:00;16.50;92.80
65036;DHT22;51603;49.300;8.880;2022-08-23T03:28:26;16.50;93.10
65036;DHT22;51603;49.300;8.880;2022-08-23T03:30:52;16.40;93.50
65036;DHT22;51603;49.300;8.880;2022-08-23T03:33:18;16.30;93.50
65036;DHT22;51603;49.300;8.880;2022-08-23T03:35:44;16.30;93.60
65036;DHT22;51603;49.300;8.880;2022-08-23T03:38:10;16.30;93.90
65036;DHT22;51603;49.300;8.880;2022-08-23T03:40:36;16.30;94.10
65036;DHT22;51603;49.300;8.880;2022-08-23T03:43:02;16.30;94.20
65036;DHT22;51603;49.300;8.880;2022-08-23T03:45:28;16.30;94.30
65036;DHT22;51603;49.300;8.880;2022-08-23T03:47:53;16.30;94.40
65036;DHT22;51603;49.300;8.880;2022-08-23T03:50:19;16.30;94.50
65036;DHT22;51603;49.300;8.880;2022-08-23T03:52:45;16.30;94.60
65036;DHT22;51603;49.300;8.880;2022-08-23T03:55:12;16.30;94.70
65036;DHT22;51603;49.300;8.880;2022-08-23T03:57:38;16.20;94.80
65036;DHT22;51603;49.300;8.880;2022-08-23T04:00:08;16.20;94.90
65036;DHT22;51603;49.300;8.880;2022-08-23T04:02:35;16.20;95.20
65036;DHT22;51603;49.300;8.880;2022-08-23T04:05:00;16.10;95.10
65036;DHT22;51603;49.300;8.880;2022-08-23T04:07:26;16.10;95.40
65036;DHT22;51603;49.300;8.880;2022-08-23T04:09:52;16.10;95.60
65036;DHT22;51603;49.300;8.880;2022-08-23T04:12:17;16.00;95.60
65036;DHT22;51603;49.300;8.880;2022-08-23T04:14:43;16.00;95.90
65036;DHT22;51603;49.300;8.880;2022-08-23T04:17:13;16.00;96.10
65036;DHT22;51603;49.300;8.880;2022-08-23T04:19:39;15.90;96.20
65036;DHT22;51603;49.300;8.880;2022-08-23T04:22:04;15.90;96.50
65036;DHT22;51603;49.300;8.880;2022-08-23T04:24:35;15.90;96.80
65036;DHT22;51603;49.300;8.880;2022-08-23T04:27:01;15.90;96.80
65036;DHT22;51603;49.300;8.880;2022-08-23T04:29:27;15.90;96.80
65036;DHT22;51603;49.300;8.880;2022-08-23T04:31:52;15.90;96.80
65036;DHT22;51603;49.300;8.880;2022-08-23T04:34:18;15.90;97.00
65036;DHT22;51603;49.300;8.880;2022-08-23T04:36:44;16.00;97.00
65036;DHT22;51603;49.300;8.880;2022-08-23T04:39:09;16.00;97.10
65036;DHT22;51603;49.300;8.880;2022-08-23T04:41:35;16.00;97.20
65036;DHT22;51603;49.300;8.880;2022-08-23T04:44:19;16.00;97.20
65036;DHT22;51603;49.300;8.880;2022-08-23T04:46:45;15.90;97.30
65036;DHT22;51603;49.300;8.880;2022-08-23T04:49:11;15.90;97.40
65036;DHT22;51603;49.300;8.880;2022-08-23T04:51:37;15.90;97.60
65036;DHT22;51603;49.300;8.880;2022-08-23T04:54:03;15.90;97.60
65036;DHT22;51603;49.300;8.880;2022-08-23T04:56:29;15.90;97.60
65036;DHT22;51603;49.300;8.880;2022-08-23T04:58:54;16.00;97.70
65036;DHT22;51603;49.300;8.880;2022-08-23T05:01:20;16.00;97.90
65036;DHT22;51603;49.300;8.880;2022-08-23T05:03:46;16.00;97.80
65036;DHT22;51603;49.300;8.880;2022-08-23T05:06:12;16.00;97.90
65036;DHT22;51603;49.300;8.880;2022-08-23T05:08:38;16.00;97.70
65036;DHT22;51603;49.300;8.880;2022-08-23T05:11:05;16.10;97.80
65036;DHT22;51603;49.300;8.880;2022-08-23T05:13:32;16.10;97.80
65036;DHT22;51603;49.300;8.880;2022-08-23T05:15:59;16.10;97.80
65036;DHT22;51603;49.300;8.880;2022-08-23T05:18:25;16.10;97.90
65036;DHT22;51603;49.300;8.880;2022-08-23T05:20:52;16.20;97.80
65036;DHT22;51603;49.300;8.880;2022-08-23T05:23:18;16.10;98.00
65036;DHT22;51603;49.300;8.880;2022-08-23T05:25:44;16.20;98.10
65036;DHT22;51603;49.300;8.880;2022-08-23T05:28:19;16.30;98.20
65036;DHT22;51603;49.300;8.880;2022-08-23T05:30:54;16.30;98.00
65036;DHT22;51603;49.300;8.880;2022-08-23T05:33:19;16.30;98.00
65036;DHT22;51603;49.300;8.880;2022-08-23T05:35:45;16.40;97.90
65036;DHT22;51603;49.300;8.880;2022-08-23T05:38:11;16.50;97.90
65036;DHT22;51603;49.300;8.880;2022-08-23T05:40:36;16.50;98.00
65036;DHT22;51603;49.300;8.880;2022-08-23T05:43:02;16.50;98.00
65036;DHT22;51603;49.300;8.880;2022-08-23T05:45:27;16.50;97.90
65036;DHT22;51603;49.300;8.880;2022-08-23T05:47:53;16.60;97.90
65036;DHT22;51603;49.300;8.880;2022-08-23T05:50:18;16.60;97.70
65036;DHT22;51603;49.300;8.880;2022-08-23T05:52:44;16.70;97.60
65036;DHT22;51603;49.300;8.880;2022-08-23T05:55:09;16.70;97.80
65036;DHT22;51603;49.300;8.880;2022-08-23T05:57:36;16.80;98.10
65036;DHT22;51603;49.300;8.880;2022-08-23T06:00:08;16.80;98.00
65036;DHT22;51603;49.300;8.880;2022-08-23T06:02:36;16.90;97.90
65036;DHT22;51603;49.300;8.880;2022-08-23T06:05:02;17.00;97.90
65036;DHT22;51603;49.300;8.880;2022-08-23T06:07:27;17.10;97.60
65036;DHT22;51603;49.300;8.880;2022-08-23T06:09:53;17.30;97.50
65036;DHT22;51603;49.300;8.880;2022-08-23T06:12:19;17.30;97.30
65036;DHT22;51603;49.300;8.880;2022-08-23T06:14:45;17.30;97.20
65036;DHT22;51603;49.300;8.880;2022-08-23T06:17:10;17.30;97.30
65036;DHT22;51603;49.300;8.880;2022-08-23T06:19:36;17.40;96.90
65036;DHT22;51603;49.300;8.880;2022-08-23T06:22:01;17.40;96.80
65036;DHT22;51603;49.300;8.880;2022-08-23T06:24:27;17.40;97.00
65036;DHT22;51603;49.300;8.880;2022-08-23T06:26:53;17.40;97.00
65036;DHT22;51603;49.300;8.880;2022-08-23T06:29:20;17.50;96.90
65036;DHT22;51603;49.300;8.880;2022-08-23T06:31:48;17.60;96.90
65036;DHT22;51603;49.300;8.880;2022-08-23T06:34:21;17.70;96.80
65036;DHT22;51603;49.300;8.880;2022-08-23T06:36:53;17.80;96.80
65036;DHT22;51603;49.300;8.880;2022-08-23T06:39:21;17.90;96.60
65036;DHT22;51603;49.300;8.880;2022-08-23T06:41:47;17.90;96.10
65036;DHT22;51603;49.300;8.880;2022-08-23T06:44:16;18.00;96.30
65036;DHT22;51603;49.300;8.880;2022-08-23T06:46:42;18.20;96.40
65036;DHT22;51603;49.300;8.880;2022-08-23T06:49:08;18.30;96.00
65036;DHT22;51603;49.300;8.880;2022-08-23T06:51:43;18.40;95.80
65036;DHT22;51603;49.300;8.880;2022-08-23T06:54:11;18.50;95.20
65036;DHT22;51603;49.300;8.880;2022-08-23T06:56:38;18.70;94.80
65036;DHT22;51603;49.300;8.880;2022-08-23T06:59:05;18.90;94.60
65036;DHT22;51603;49.300;8.880;2022-08-23T07:01:47;19.10;93.90
65036;DHT22;51603;49.300;8.880;2022-08-23T07:04:19;19.20;93.40
65036;DHT22;51603;49.300;8.880;2022-08-23T07:06:45;19.40;93.10
65036;DHT22;51603;49.300;8.880;2022-08-23T07:09:11;19.60;93.00
65036;DHT22;51603;49.300;8.880;2022-08-23T07:11:37;19.80;92.40
65036;DHT22;51603;49.300;8.880;2022-08-23T07:14:09;19.80;91.90
65036;DHT22;51603;49.300;8.880;2022-08-23T07:16:41;19.90;91.90
65036;DHT22;51603;49.300;8.880;2022-08-23T07:19:08;19.90;92.10
65036;DHT22;51603;49.300;8.880;2022-08-23T07:21:34;20.20;91.80
65036;DHT22;51603;49.300;8.880;2022-08-23T07:24:00;20.30;90.80
65036;DHT22;51603;49.300;8.880;2022-08-23T07:26:26;20.50;91.30
65036;DHT22;51603;49.300;8.880;2022-08-23T07:28:52;20.50;89.70
65036;DHT22;51603;49.300;8.880;2022-08-23T07:31:25;20.50;90.00
65036;DHT22;51603;49.300;8.880;2022-08-23T07:33:52;20.70;89.80
65036;DHT22;51603;49.300;8.880;2022-08-23T07:36:20;20.90;88.60
65036;DHT22;51603;49.300;8.880;2022-08-23T07:38:47;20.90;89.60
65036;DHT22;51603;49.300;8.880;2022-08-23T07:41:14;21.00;88.40
65036;DHT22;51603;49.300;8.880;2022-08-23T07:43:40;21.00;87.00
65036;DHT22;51603;49.300;8.880;2022-08-23T07:46:07;21.10;86.50
65036;DHT22;51603;49.300;8.880;2022-08-23T07:48:33;21.30;86.30
65036;DHT22;51603;49.300;8.880;2022-08-23T07:51:01;21.60;85.60
65036;DHT22;51603;49.300;8.880;2022-08-23T07:53:27;21.80;84.10
65036;DHT22;51603;49.300;8.880;2022-08-23T07:55:54;21.70;82.70
65036;DHT22;51603;49.300;8.880;2022-08-23T07:58:20;21.90;84.20
65036;DHT22;51603;49.300;8.880;2022-08-23T08:00:46;22.10;83.90
65036;DHT22;51603;49.300;8.880;2022-08-23T08:03:13;22.30;83.50
65036;DHT22;51603;49.300;8.880;2022-08-23T08:05:39;22.60;81.00
65036;DHT22;51603;49.300;8.880;2022-08-23T08:08:05;22.60;80.20
65036;DHT22;51603;49.300;8.880;2022-08-23T08:10:31;22.60;80.50
65036;DHT22;51603;49.300;8.880;2022-08-23T08:12:57;22.70;78.60
65036;DHT22;51603;49.300;8.880;2022-08-23T08:15:23;22.80;79.10
65036;DHT22;51603;49.300;8.880;2022-08-23T08:17:49;22.90;78.70
65036;DHT22;51603;49.300;8.880;2022-08-23T08:20:20;23.20;77.50
65036;DHT22;51603;49.300;8.880;2022-08-23T08:22:46;23.20;75.90
65036;DHT22;51603;49.300;8.880;2022-08-23T08:25:12;23.10;75.40
65036;DHT22;51603;49.300;8.880;2022-08-23T08:27:39;23.10;74.80
65036;DHT22;51603;49.300;8.880;2022-08-23T08:30:06;23.20;74.00
65036;DHT22;51603;49.300;8.880;2022-08-23T08:32:32;23.20;74.40
65036;DHT22;51603;49.300;8.880;2022-08-23T08:34:58;23.40;74.00
65036;DHT22;51603;49.300;8.880;2022-08-23T08:37:23;23.60;74.40
65036;DHT22;51603;49.300;8.880;2022-08-23T08:39:49;23.90;73.60
65036;DHT22;51603;49.300;8.880;2022-08-23T08:45:25;24.20;72.20
65036;DHT22;51603;49.300;8.880;2022-08-23T08:47:52;24.30;69.40
65036;DHT22;51603;49.300;8.880;2022-08-23T08:50:29;24.30;69.10
65036;DHT22;51603;49.300;8.880;2022-08-23T08:53:04;24.50;69.10
65036;DHT22;51603;49.300;8.880;2022-08-23T08:55:43;24.80;67.70
65036;DHT22;51603;49.300;8.880;2022-08-23T08:58:32;24.90;66.20
65036;DHT22;51603;49.300;8.880;2022-08-23T09:01:00;24.90;64.50
65036;DHT22;51603;49.300;8.880;2022-08-23T09:03:31;24.90;65.10
65036;DHT22;51603;49.300;8.880;2022-08-23T09:06:05;24.90;64.30
65036;DHT22;51603;49.300;8.880;2022-08-23T09:11:43;25.40;63.40
65036;DHT22;51603;49.300;8.880;2022-08-23T09:16:53;25.80;63.00
65036;DHT22;51603;49.300;8.880;2022-08-23T09:19:21;26.00;60.60
65036;DHT22;51603;49.300;8.880;2022-08-23T09:21:55;26.20;60.20
65036;DHT22;51603;49.300;8.880;2022-08-23T09:24:21;26.10;59.00
65036;DHT22;51603;49.300;8.880;2022-08-23T09:26:47;26.30;60.20
65036;DHT22;51603;49.300;8.880;2022-08-23T09:29:38;26.70;58.80
65036;DHT22;51603;49.300;8.880;2022-08-23T09:32:06;26.90;56.00
65036;DHT22;51603;49.300;8.880;2022-08-23T09:34:49;27.00;56.80
65036;DHT22;51603;49.300;8.880;2022-08-23T09:37:17;27.10;55.80
65036;DHT22;51603;49.300;8.880;2022-08-23T09:39:49;26.90;55.20
65036;DHT22;51603;49.300;8.880;2022-08-23T09:42:30;27.00;55.00
65036;DHT22;51603;49.300;8.880;2022-08-23T09:44:56;27.10;54.70
65036;DHT22;51603;49.300;8.880;2022-08-23T09:47:34;27.20;55.80
65036;DHT22;51603;49.300;8.880;2022-08-23T09:50:16;27.40;54.10
65036;DHT22;51603;49.300;8.880;2022-08-23T09:52:42;27.60;54.50
65036;DHT22;51603;49.300;8.880;2022-08-23T09:55:25;28.00;53.10
65036;DHT22;51603;49.300;8.880;2022-08-23T09:57:51;28.10;51.80
65036;DHT22;51603;49.300;8.880;2022-08-23T10:00:27;28.50;51.00
65036;DHT22;51603;49.300;8.880;2022-08-23T10:02:55;28.80;51.20
65036;DHT22;51603;49.300;8.880;2022-08-23T10:05:40;29.00;49.70
65036;DHT22;51603;49.300;8.880;2022-08-23T10:08:06;29.50;49.00
65036;DHT22;51603;49.300;8.880;2022-08-23T10:10:44;29.60;48.30
65036;DHT22;51603;49.300;8.880;2022-08-23T10:13:12;29.00;46.50
65036;DHT22;51603;49.300;8.880;2022-08-23T10:19:28;29.50;46.90
65036;DHT22;51603;49.300;8.880;2022-08-23T10:27:57;29.40;43.60
65036;DHT22;51603;49.300;8.880;2022-08-23T10:31:12;29.70;43.70
65036;DHT22;51603;49.300;8.880;2022-08-23T10:33:48;29.70;42.90
65036;DHT22;51603;49.300;8.880;2022-08-23T10:36:37;29.70;42.50
65036;DHT22;51603;49.300;8.880;2022-08-23T10:39:15;29.80;43.20
65036;DHT22;51603;49.300;8.880;2022-08-23T10:42:07;30.20;42.00
65036;DHT22;51603;49.300;8.880;2022-08-23T10:44:59;30.10;39.10
65036;DHT22;51603;49.300;8.880;2022-08-23T10:47:36;29.80;38.90
65036;DHT22;51603;49.300;8.880;2022-08-23T10:50:08;29.60;40.30
65036;DHT22;51603;49.300;8.880;2022-08-23T10:52:39;30.00;40.80
65036;DHT22;51603;49.300;8.880;2022-08-23T10:55:14;30.50;39.70
65036;DHT22;51603;49.300;8.880;2022-08-23T10:57:50;30.40;38.10
65036;DHT22;51603;49.300;8.880;2022-08-23T11:00:25;30.20;37.80
65036;DHT22;51603;49.300;8.880;2022-08-23T11:05:35;30.10;38.70
65036;DHT22;51603;49.300;8.880;2022-08-23T11:08:09;30.40;39.90
65036;DHT22;51603;49.300;8.880;2022-08-23T11:13:17;30.80;37.70
65036;DHT22;51603;49.300;8.880;2022-08-23T11:16:22;30.80;37.80
65036;DHT22;51603;49.300;8.880;2022-08-23T11:18:47;30.90;37.30
65036;DHT22;51603;49.300;8.880;2022-08-23T11:31:35;30.10;37.30
65036;DHT22;51603;49.300;8.880;2022-08-23T11:34:10;30.50;38.00
65036;DHT22;51603;49.300;8.880;2022-08-23T11:36:37;30.80;36.80
65036;DHT22;51603;49.300;8.880;2022-08-23T11:39:07;30.80;36.30
65036;DHT22;51603;49.300;8.880;2022-08-23T11:44:34;30.90;36.10
65036;DHT22;51603;49.300;8.880;2022-08-23T11:47:03;31.00;36.80
65036;DHT22;51603;49.300;8.880;2022-08-23T11:52:45;31.40;36.20
65036;DHT22;51603;49.300;8.880;2022-08-23T11:55:24;32.00;35.50
65036;DHT22;51603;49.300;8.880;2022-08-23T11:58:19;32.50;34.40
65036;DHT22;51603;49.300;8.880;2022-08-23T12:00:51;32.80;33.20
65036;DHT22;51603;49.300;8.880;2022-08-23T12:03:32;32.90;32.50
65036;DHT22;51603;49.300;8.880;2022-08-23T12:06:10;33.10;32.00
65036;DHT22;51603;49.300;8.880;2022-08-23T12:11:11;31.70;31.70
65036;DHT22;51603;49.300;8.880;2022-08-23T12:13:48;31.70;32.50
65036;DHT22;51603;49.300;8.880;2022-08-23T12:21:28;32.50;31.40
65036;DHT22;51603;49.300;8.880;2022-08-23T12:24:00;32.60;31.40
65036;DHT22;51603;49.300;8.880;2022-08-23T12:34:48;32.80;32.20
65036;DHT22;51603;49.300;8.880;2022-08-23T12:37:20;32.70;30.60
65036;DHT22;51603;49.300;8.880;2022-08-23T12:39:52;32.80;31.80
65036;DHT22;51603;49.300;8.880;2022-08-23T12:42:31;33.10;30.50
65036;DHT22;51603;49.300;8.880;2022-08-23T12:45:06;32.90;29.60
65036;DHT22;51603;49.300;8.880;2022-08-23T12:47:33;32.60;29.60
65036;DHT22;51603;49.300;8.880;2022-08-23T12:50:07;32.50;29.90
65036;DHT22;51603;49.300;8.880;2022-08-23T12:52:37;32.90;31.90
65036;DHT22;51603;49.300;8.880;2022-08-23T12:55:12;33.00;30.50
65036;DHT22;51603;49.300;8.880;2022-08-23T12:57:41;33.30;30.30
65036;DHT22;51603;49.300;8.880;2022-08-23T13:02:42;33.10;31.30
65036;DHT22;51603;49.300;8.880;2022-08-23T13:07:51;32.30;29.80
65036;DHT22;51603;49.300;8.880;2022-08-23T13:10:18;31.90;30.00
65036;DHT22;51603;49.300;8.880;2022-08-23T13:12:43;32.20;30.90
65036;DHT22;51603;49.300;8.880;2022-08-23T13:15:09;32.50;30.80
65036;DHT22;51603;49.300;8.880;2022-08-23T13:17:37;32.80;30.90
65036;DHT22;51603;49.300;8.880;2022-08-23T13:20:20;33.10;30.30
65036;DHT22;51603;49.300;8.880;2022-08-23T13:23:04;33.40;29.80
65036;DHT22;51603;49.300;8.880;2022-08-23T13:25:33;33.60;29.00
65036;DHT22;51603;49.300;8.880;2022-08-23T13:28:07;33.60;29.10
65036;DHT22;51603;49.300;8.880;2022-08-23T13:30:35;33.70;29.30
65036;DHT22;51603;49.300;8.880;2022-08-23T13:40:55;32.90;29.50
65036;DHT22;51603;49.300;8.880;2022-08-23T13:43:35;32.50;29.80
65036;DHT22;51603;49.300;8.880;2022-08-23T13:46:20;32.60;29.80
65036;DHT22;51603;49.300;8.880;2022-08-23T13:49:00;32.90;30.90
65036;DHT22;51603;49.300;8.880;2022-08-23T13:51:32;33.00;29.60
65036;DHT22;51603;49.300;8.880;2022-08-23T13:54:00;32.80;29.90
65036;DHT22;51603;49.300;8.880;2022-08-23T13:56:27;32.80;28.20
65036;DHT22;51603;49.300;8.880;2022-08-23T13:59:02;32.80;29.60
65036;DHT22;51603;49.300;8.880;2022-08-23T14:01:28;33.10;30.10
65036;DHT22;51603;49.300;8.880;2022-08-23T14:03:55;33.20;28.60
65036;DHT22;51603;49.300;8.880;2022-08-23T14:06:20;33.30;28.60
65036;DHT22;51603;49.300;8.880;2022-08-23T14:08:46;33.40;29.00
65036;DHT22;51603;49.300;8.880;2022-08-23T14:11:13;33.60;28.30
65036;DHT22;51603;49.300;8.880;2022-08-23T14:13:43;33.60;27.90
65036;DHT22;51603;49.300;8.880;2022-08-23T14:16:14;33.60;28.00
65036;DHT22;51603;49.300;8.880;2022-08-23T14:18:42;33.80;28.00
65036;DHT22;51603;49.300;8.880;2022-08-23T14:21:07;34.00;28.10
65036;DHT22;51603;49.300;8.880;2022-08-23T14:23:33;34.00;28.20
65036;DHT22;51603;49.300;8.880;2022-08-23T14:25:58;34.00;27.10
65036;DHT22;51603;49.300;8.880;2022-08-23T14:28:27;33.40;27.20
65036;DHT22;51603;49.300;8.880;2022-08-23T14:30:53;33.00;27.70
65036;DHT22;51603;49.300;8.880;2022-08-23T14:33:19;33.00;27.90
65036;DHT22;51603;49.300;8.880;2022-08-23T14:35:46;32.90;27.80
65036;DHT22;51603;49.300;8.880;2022-08-23T14:38:12;32.70;27.50
65036;DHT22;51603;49.300;8.880;2022-08-23T14:40:45;32.70;28.10
65036;DHT22;51603;49.300;8.880;2022-08-23T14:43:14;33.10;29.00
65036;DHT22;51603;49.300;8.880;2022-08-23T14:45:39;33.50;28.30
65036;DHT22;51603;49.300;8.880;2022-08-23T14:48:05;33.70;28.00
65036;DHT22;51603;49.300;8.880;2022-08-23T14:50:30;33.90;28.10
65036;DHT22;51603;49.300;8.880;2022-08-23T14:52:56;33.70;26.80
65036;DHT22;51603;49.300;8.880;2022-08-23T14:55:22;33.30;26.80
65036;DHT22;51603;49.300;8.880;2022-08-23T14:57:47;33.10;26.90
65036;DHT22;51603;49.300;8.880;2022-08-23T15:00:16;33.10;28.20
65036;DHT22;51603;49.300;8.880;2022-08-23T15:02:43;32.80;26.80
65036;DHT22;51603;49.300;8.880;2022-08-23T15:05:10;32.70;27.40
65036;DHT22;51603;49.300;8.880;2022-08-23T15:07:36;32.80;27.70
65036;DHT22;51603;49.300;8.880;2022-08-23T15:10:02;32.90;28.10
65036;DHT22;51603;49.300;8.880;2022-08-23T15:12:29;33.10;27.70
65036;DHT22;51603;49.300;8.880;2022-08-23T15:14:54;33.40;28.10
65036;DHT22;51603;49.300;8.880;2022-08-23T15:17:20;33.60;26.80
65036;DHT22;51603;49.300;8.880;2022-08-23T15:19:45;33.10;27.30
65036;DHT22;51603;49.300;8.880;2022-08-23T15:22:11;33.00;27.50
65036;DHT22;51603;49.300;8.880;2022-08-23T15:24:36;32.90;27.40
65036;DHT22;51603;49.300;8.880;2022-08-23T15:27:05;32.90;27.80
65036;DHT22;51603;49.300;8.880;2022-08-23T15:29:31;32.90;27.50
65036;DHT22;51603;49.300;8.880;2022-08-23T15:31:57;33.10;27.40
65036;DHT22;51603;49.300;8.880;2022-08-23T15:34:22;33.30;27.80
65036;DHT22;51603;49.300;8.880;2022-08-23T15:36:48;33.20;27.10
65036;DHT22;51603;49.300;8.880;2022-08-23T15:39:14;33.10;27.50
65036;DHT22;51603;49.300;8.880;2022-08-23T15:41:40;33.10;28.00
65036;DHT22;51603;49.300;8.880;2022-08-23T15:44:06;33.10;27.50
65036;DHT22;51603;49.300;8.880;2022-08-23T15:46:31;33.20;27.40
65036;DHT22;51603;49.300;8.880;2022-08-23T15:49:04;33.30;27.40
65036;DHT22;51603;49.300;8.880;2022-08-23T15:51:30;33.20;27.40
65036;DHT22;51603;49.300;8.880;2022-08-23T15:53:56;33.10;27.80
65036;DHT22;51603;49.300;8.880;2022-08-23T15:56:46;33.10;28.40
65036;DHT22;51603;49.300;8.880;2022-08-23T15:59:14;33.30;28.20
65036;DHT22;51603;49.300;8.880;2022-08-23T16:01:40;33.60;28.20
65036;DHT22;51603;49.300;8.880;2022-08-23T16:04:06;33.90;27.90
65036;DHT22;51603;49.300;8.880;2022-08-23T16:06:33;33.70;26.80
65036;DHT22;51603;49.300;8.880;2022-08-23T16:09:00;33.30;27.00
65036;DHT22;51603;49.300;8.880;2022-08-23T16:11:25;33.00;27.80
65036;DHT22;51603;49.300;8.880;2022-08-23T16:13:51;33.10;28.50
65036;DHT22;51603;49.300;8.880;2022-08-23T16:16:23;33.40;28.50
65036;DHT22;51603;49.300;8.880;2022-08-23T16:18:50;33.40;28.60
65036;DHT22;51603;49.300;8.880;2022-08-23T16:21:17;33.40;28.20
65036;DHT22;51603;49.300;8.880;2022-08-23T16:23:43;33.30;28.00
65036;DHT22;51603;49.300;8.880;2022-08-23T16:26:12;33.10;28.50
65036;DHT22;51603;49.300;8.880;2022-08-23T16:28:41;33.20;28.10
65036;DHT22;51603;49.300;8.880;2022-08-23T16:31:07;33.00;28.50
65036;DHT22;51603;49.300;8.880;2022-08-23T16:33:33;32.70;28.30
65036;DHT22;51603;49.300;8.880;2022-08-23T16:35:58;32.80;28.80
65036;DHT22;51603;49.300;8.880;2022-08-23T16:38:24;32.80;28.70
65036;DHT22;51603;49.300;8.880;2022-08-23T16:40:49;32.70;28.30
65036;DHT22;51603;49.300;8.880;2022-08-23T16:43:15;32.70;28.80
65036;DHT22;51603;49.300;8.880;2022-08-23T16:45:40;32.50;28.30
65036;DHT22;51603;49.300;8.880;2022-08-23T16:48:06;32.40;28.70
65036;DHT22;51603;49.300;8.880;2022-08-23T16:50:31;32.40;28.20
65036;DHT22;51603;49.300;8.880;2022-08-23T16:52:57;32.20;28.80